sensor_id;sensor_type;location;lat;lon;timestamp;pressure;altitude;pressure_sealevel;temperature;humidity
48926;BME280;39838;59.938;30.642;2024-03-06T00:01:05;102407.41;;;-2.75;75.94
48926;BME280;39838;59.938;30.642;2024-03-06T00:03:32;102402.44;;;-2.73;75.30
48926;BME280;39838;59.938;30.642;2024-03-06T00:05:59;102401.69;;;-2.72;75.19
48926;BME280;39838;59.938;30.642;2024-03-06T00:08:26;102401.19;;;-2.68;75.16
48926;BME280;39838;59.938;30.642;2024-03-06T00:10:55;102403.09;;;-2.66;74.87
48926;BME280;39838;59.938;30.642;2024-03-06T00:13:23;102399.53;;;-2.68;74.46
48926;BME280;39838;59.938;30.642;2024-03-06T00:15:50;102409.59;;;-2.69;74.46
48926;BME280;39838;59.938;30.642;2024-03-06T00:18:17;102405.25;;;-2.70;74.26
48926;BME280;39838;59.938;30.642;2024-03-06T00:20:53;102398.88;;;-2.76;74.32
48926;BME280;39838;59.938;30.642;2024-03-06T00:23:21;102400.44;;;-2.78;74.17
48926;BME280;39838;59.938;30.642;2024-03-06T00:25:48;102405.53;;;-2.78;74.28
48926;BME280;39838;59.938;30.642;2024-03-06T00:28:16;102408.94;;;-2.77;73.87
48926;BME280;39838;59.938;30.642;2024-03-06T00:30:43;102403.97;;;-2.76;74.09
48926;BME280;39838;59.938;30.642;2024-03-06T00:33:11;102402.22;;;-2.77;74.09
48926;BME280;39838;59.938;30.642;2024-03-06T00:35:38;102404.09;;;-2.74;74.12
48926;BME280;39838;59.938;30.642;2024-03-06T00:38:05;102406.00;;;-2.71;73.89
48926;BME280;39838;59.938;30.642;2024-03-06T00:40:33;102395.97;;;-2.70;73.69
48926;BME280;39838;59.938;30.642;2024-03-06T00:43:00;102402.06;;;-2.68;73.45
48926;BME280;39838;59.938;30.642;2024-03-06T00:45:28;102402.84;;;-2.69;73.27
48926;BME280;39838;59.938;30.642;2024-03-06T00:47:56;102397.63;;;-2.70;73.21
48926;BME280;39838;59.938;30.642;2024-03-06T00:50:23;102408.06;;;-2.67;73.36
48926;BME280;39838;59.938;30.642;2024-03-06T00:52:50;102408.06;;;-2.67;73.02
48926;BME280;39838;59.938;30.642;2024-03-06T00:55:17;102401.31;;;-2.67;72.91
48926;BME280;39838;59.938;30.642;2024-03-06T00:57:45;102404.50;;;-2.69;73.04
48926;BME280;39838;59.938;30.642;2024-03-06T01:00:13;102411.34;;;-2.68;72.80
48926;BME280;39838;59.938;30.642;2024-03-06T01:02:43;102407.81;;;-2.70;72.86
48926;BME280;39838;59.938;30.642;2024-03-06T01:05:10;102406.16;;;-2.70;73.10
48926;BME280;39838;59.938;30.642;2024-03-06T01:07:37;102383.00;;;-2.83;73.06
48926;BME280;39838;59.938;30.642;2024-03-06T01:10:06;102407.03;;;-2.69;72.95
48926;BME280;39838;59.938;30.642;2024-03-06T01:12:34;102404.50;;;-2.69;73.13
48926;BME280;39838;59.938;30.642;2024-03-06T01:15:01;102403.59;;;-2.70;72.74
48926;BME280;39838;59.938;30.642;2024-03-06T01:17:30;102410.59;;;-2.67;72.96
48926;BME280;39838;59.938;30.642;2024-03-06T01:19:59;102407.41;;;-2.65;72.66
48926;BME280;39838;59.938;30.642;2024-03-06T01:22:29;102405.00;;;-2.63;73.05
48926;BME280;39838;59.938;30.642;2024-03-06T01:24:56;102404.13;;;-2.64;72.68
48926;BME280;39838;59.938;30.642;2024-03-06T01:27:23;102409.34;;;-2.62;72.67
48926;BME280;39838;59.938;30.642;2024-03-06T01:29:51;102412.75;;;-2.62;72.62
48926;BME280;39838;59.938;30.642;2024-03-06T01:32:18;102412.75;;;-2.62;72.52
48926;BME280;39838;59.938;30.642;2024-03-06T01:34:45;102387.81;;;-2.76;72.71
48926;BME280;39838;59.938;30.642;2024-03-06T01:37:14;102409.81;;;-2.66;72.36
48926;BME280;39838;59.938;30.642;2024-03-06T01:39:41;102406.28;;;-2.68;72.38
48926;BME280;39838;59.938;30.642;2024-03-06T01:42:09;102413.13;;;-2.67;72.02
48926;BME280;39838;59.938;30.642;2024-03-06T01:44:36;102411.09;;;-2.71;72.03
48926;BME280;39838;59.938;30.642;2024-03-06T01:47:03;102408.41;;;-2.73;72.16
48926;BME280;39838;59.938;30.642;2024-03-06T01:49:32;102420.13;;;-2.75;71.74
48926;BME280;39838;59.938;30.642;2024-03-06T01:52:00;102397.34;;;-2.73;72.01
48926;BME280;39838;59.938;30.642;2024-03-06T01:54:31;102399.78;;;-2.75;72.15
48926;BME280;39838;59.938;30.642;2024-03-06T01:56:59;102389.97;;;-2.81;71.82
48926;BME280;39838;59.938;30.642;2024-03-06T01:59:28;102393.00;;;-2.85;71.73
48926;BME280;39838;59.938;30.642;2024-03-06T02:01:56;102394.56;;;-2.87;71.27
48926;BME280;39838;59.938;30.642;2024-03-06T02:04:24;102386.16;;;-2.86;71.53
48926;BME280;39838;59.938;30.642;2024-03-06T02:06:53;102381.44;;;-2.91;71.00
48926;BME280;39838;59.938;30.642;2024-03-06T02:09:21;102401.81;;;-2.81;71.00
48926;BME280;39838;59.938;30.642;2024-03-06T02:11:50;102398.63;;;-2.79;70.93
48926;BME280;39838;59.938;30.642;2024-03-06T02:14:17;102398.88;;;-2.76;70.78
48926;BME280;39838;59.938;30.642;2024-03-06T02:16:45;102402.31;;;-2.75;70.67
48926;BME280;39838;59.938;30.642;2024-03-06T02:19:39;102406.00;;;-2.71;70.85
48926;BME280;39838;59.938;30.642;2024-03-06T02:22:08;102407.03;;;-2.69;70.68
48926;BME280;39838;59.938;30.642;2024-03-06T02:24:35;102393.56;;;-2.68;70.45
48926;BME280;39838;59.938;30.642;2024-03-06T02:27:03;102401.31;;;-2.67;70.27
48926;BME280;39838;59.938;30.642;2024-03-06T02:29:31;102399.75;;;-2.65;70.30
48926;BME280;39838;59.938;30.642;2024-03-06T02:32:00;102401.41;;;-2.65;70.27
48926;BME280;39838;59.938;30.642;2024-03-06T02:34:29;102399.75;;;-2.65;70.21
48926;BME280;39838;59.938;30.642;2024-03-06T02:36:56;102407.16;;;-2.68;70.17
48926;BME280;39838;59.938;30.642;2024-03-06T02:39:25;102404.50;;;-2.69;69.75
48926;BME280;39838;59.938;30.642;2024-03-06T02:41:53;102408.53;;;-2.71;70.24
48926;BME280;39838;59.938;30.642;2024-03-06T02:44:20;102409.59;;;-2.69;70.13
48926;BME280;39838;59.938;30.642;2024-03-06T02:46:47;102414.31;;;-2.64;70.33
48926;BME280;39838;59.938;30.642;2024-03-06T02:49:15;102399.41;;;-2.69;70.28
48926;BME280;39838;59.938;30.642;2024-03-06T02:51:43;102412.38;;;-2.66;70.26
48926;BME280;39838;59.938;30.642;2024-03-06T02:54:11;102414.78;;;-2.68;70.44
48926;BME280;39838;59.938;30.642;2024-03-06T02:56:39;102399.13;;;-2.72;70.64
48926;BME280;39838;59.938;30.642;2024-03-06T02:59:07;102391.63;;;-2.81;70.77
48926;BME280;39838;59.938;30.642;2024-03-06T03:01:34;102414.53;;;-2.71;70.78
48926;BME280;39838;59.938;30.642;2024-03-06T03:04:01;102404.75;;;-2.77;70.93
48926;BME280;39838;59.938;30.642;2024-03-06T03:06:29;102409.97;;;-2.75;71.12
48926;BME280;39838;59.938;30.642;2024-03-06T03:08:56;102408.06;;;-2.78;71.33
48926;BME280;39838;59.938;30.642;2024-03-06T03:11:23;102417.19;;;-2.80;71.42
48926;BME280;39838;59.938;30.642;2024-03-06T03:13:52;102416.31;;;-2.80;71.54
48926;BME280;39838;59.938;30.642;2024-03-06T03:16:19;102422.28;;;-2.80;71.99
48926;BME280;39838;59.938;30.642;2024-03-06T03:18:47;102422.28;;;-2.80;71.58
48926;BME280;39838;59.938;30.642;2024-03-06T03:21:14;102423.69;;;-2.83;71.74
48926;BME280;39838;59.938;30.642;2024-03-06T03:23:42;102427.91;;;-2.84;71.58
48926;BME280;39838;59.938;30.642;2024-03-06T03:26:10;102424.19;;;-2.87;71.57
48926;BME280;39838;59.938;30.642;2024-03-06T03:28:38;102425.72;;;-2.89;71.93
48926;BME280;39838;59.938;30.642;2024-03-06T03:31:08;102419.47;;;-2.93;71.67
48926;BME280;39838;59.938;30.642;2024-03-06T03:33:38;102381.53;;;-3.20;72.05
48926;BME280;39838;59.938;30.642;2024-03-06T03:36:07;102425.97;;;-2.96;71.98
48926;BME280;39838;59.938;30.642;2024-03-06T03:38:35;102423.41;;;-2.96;72.29
48926;BME280;39838;59.938;30.642;2024-03-06T03:41:07;102418.22;;;-2.98;72.23
48926;BME280;39838;59.938;30.642;2024-03-06T03:43:35;102410.59;;;-2.98;72.10
48926;BME280;39838;59.938;30.642;2024-03-06T03:46:02;102404.34;;;-3.02;72.21
48926;BME280;39838;59.938;30.642;2024-03-06T03:48:31;102409.78;;;-3.07;72.31
48926;BME280;39838;59.938;30.642;2024-03-06T03:51:01;102407.75;;;-3.11;72.26
48926;BME280;39838;59.938;30.642;2024-03-06T03:53:30;102395.94;;;-3.11;72.17
48926;BME280;39838;59.938;30.642;2024-03-06T03:55:57;102390.97;;;-3.09;72.04
48926;BME280;39838;59.938;30.642;2024-03-06T03:58:24;102392.25;;;-3.04;72.16
48926;BME280;39838;59.938;30.642;2024-03-06T04:00:51;102394.03;;;-3.03;72.05
48926;BME280;39838;59.938;30.642;2024-03-06T04:03:21;102387.41;;;-3.01;71.94
48926;BME280;39838;59.938;30.642;2024-03-06T04:05:50;102386.53;;;-3.02;71.11
48926;BME280;39838;59.938;30.642;2024-03-06T04:08:17;102388.19;;;-3.02;71.33
48926;BME280;39838;59.938;30.642;2024-03-06T04:10:44;102384.63;;;-3.04;70.77
48926;BME280;39838;59.938;30.642;2024-03-06T04:13:12;102388.19;;;-3.02;70.99
48926;BME280;39838;59.938;30.642;2024-03-06T04:15:39;102382.09;;;-3.04;70.90
48926;BME280;39838;59.938;30.642;2024-03-06T04:18:06;102383.47;;;-3.08;70.90
48926;BME280;39838;59.938;30.642;2024-03-06T04:20:33;102385.00;;;-3.10;70.81
48926;BME280;39838;59.938;30.642;2024-03-06T04:23:02;102372.91;;;-3.12;70.85
48926;BME280;39838;59.938;30.642;2024-03-06T04:25:29;102373.66;;;-3.13;70.55
48926;BME280;39838;59.938;30.642;2024-03-06T04:27:57;102377.25;;;-3.11;70.61
48926;BME280;39838;59.938;30.642;2024-03-06T04:30:24;102369.63;;;-3.11;70.58
48926;BME280;39838;59.938;30.642;2024-03-06T04:32:51;102370.63;;;-3.09;70.56
48926;BME280;39838;59.938;30.642;2024-03-06T04:35:18;102369.84;;;-3.08;70.21
48926;BME280;39838;59.938;30.642;2024-03-06T04:37:46;102377.00;;;-3.04;70.16
48926;BME280;39838;59.938;30.642;2024-03-06T04:40:14;102375.34;;;-3.04;70.24
48926;BME280;39838;59.938;30.642;2024-03-06T04:42:45;102364.28;;;-3.04;69.75
48926;BME280;39838;59.938;30.642;2024-03-06T04:45:15;102362.75;;;-3.02;69.55
48926;BME280;39838;59.938;30.642;2024-03-06T04:47:42;102363.53;;;-3.03;69.34
48926;BME280;39838;59.938;30.642;2024-03-06T04:50:10;102354.97;;;-3.14;69.40
48926;BME280;39838;59.938;30.642;2024-03-06T04:52:38;102361.59;;;-3.06;69.36
48926;BME280;39838;59.938;30.642;2024-03-06T04:55:07;102363.75;;;-3.10;69.91
48926;BME280;39838;59.938;30.642;2024-03-06T04:57:37;102367.31;;;-3.08;69.30
48926;BME280;39838;59.938;30.642;2024-03-06T05:00:07;102360.47;;;-3.09;69.49
48926;BME280;39838;59.938;30.642;2024-03-06T05:02:35;102367.06;;;-3.11;69.44
48926;BME280;39838;59.938;30.642;2024-03-06T05:05:03;102360.19;;;-3.12;69.58
48926;BME280;39838;59.938;30.642;2024-03-06T05:07:32;102352.72;;;-3.11;69.27
48926;BME280;39838;59.938;30.642;2024-03-06T05:10:00;102347.47;;;-3.12;69.52
48926;BME280;39838;59.938;30.642;2024-03-06T05:12:27;102362.63;;;-3.04;69.53
48926;BME280;39838;59.938;30.642;2024-03-06T05:14:56;102359.44;;;-3.01;69.61
48926;BME280;39838;59.938;30.642;2024-03-06T05:17:23;102364.53;;;-3.01;69.14
48926;BME280;39838;59.938;30.642;2024-03-06T05:19:50;102346.84;;;-2.99;69.27
48926;BME280;39838;59.938;30.642;2024-03-06T05:22:18;102359.72;;;-2.98;69.18
48926;BME280;39838;59.938;30.642;2024-03-06T05:24:45;102356.41;;;-2.97;69.03
48926;BME280;39838;59.938;30.642;2024-03-06T05:27:12;102355.38;;;-2.99;69.01
48926;BME280;39838;59.938;30.642;2024-03-06T05:29:42;102362.25;;;-2.98;69.15
48926;BME280;39838;59.938;30.642;2024-03-06T05:32:12;102362.38;;;-2.96;69.01
48926;BME280;39838;59.938;30.642;2024-03-06T05:34:39;102350.66;;;-2.94;69.04
48926;BME280;39838;59.938;30.642;2024-03-06T05:37:07;102343.69;;;-2.97;68.97
48926;BME280;39838;59.938;30.642;2024-03-06T05:39:34;102350.28;;;-2.89;68.81
48926;BME280;39838;59.938;30.642;2024-03-06T05:42:03;102350.28;;;-2.89;68.64
48926;BME280;39838;59.938;30.642;2024-03-06T05:44:31;102353.84;;;-2.87;68.55
48926;BME280;39838;59.938;30.642;2024-03-06T05:47:00;102352.31;;;-2.85;68.97
48926;BME280;39838;59.938;30.642;2024-03-06T05:49:29;102349.91;;;-2.83;68.82
48926;BME280;39838;59.938;30.642;2024-03-06T05:51:58;102334.38;;;-2.86;68.67
48926;BME280;39838;59.938;30.642;2024-03-06T05:54:25;102340.63;;;-2.72;68.57
48926;BME280;39838;59.938;30.642;2024-03-06T05:56:53;102345.44;;;-2.65;68.38
48926;BME280;39838;59.938;30.642;2024-03-06T05:59:20;102344.16;;;-2.60;68.38
48926;BME280;39838;59.938;30.642;2024-03-06T06:01:49;102347.22;;;-2.54;68.33
48926;BME280;39838;59.938;30.642;2024-03-06T06:04:16;102336.53;;;-2.50;68.33
48926;BME280;39838;59.938;30.642;2024-03-06T06:06:45;102336.78;;;-2.47;68.46
48926;BME280;39838;59.938;30.642;2024-03-06T06:09:12;102332.97;;;-2.42;68.13
48926;BME280;39838;59.938;30.642;2024-03-06T06:11:42;102325.06;;;-2.45;67.91
48926;BME280;39838;59.938;30.642;2024-03-06T06:14:09;102339.31;;;-2.37;67.96
48926;BME280;39838;59.938;30.642;2024-03-06T06:16:37;102337.78;;;-2.35;68.10
48926;BME280;39838;59.938;30.642;2024-03-06T06:19:06;102331.03;;;-2.34;68.09
48926;BME280;39838;59.938;30.642;2024-03-06T06:21:34;102336.13;;;-2.34;68.19
48926;BME280;39838;59.938;30.642;2024-03-06T06:24:03;102331.41;;;-2.30;67.95
48926;BME280;39838;59.938;30.642;2024-03-06T06:26:31;102338.16;;;-2.30;67.88
48926;BME280;39838;59.938;30.642;2024-03-06T06:28:58;102336.97;;;-2.24;67.86
48926;BME280;39838;59.938;30.642;2024-03-06T06:31:25;102334.78;;;-2.19;67.84
48926;BME280;39838;59.938;30.642;2024-03-06T06:33:53;102335.81;;;-2.17;67.71
48926;BME280;39838;59.938;30.642;2024-03-06T06:36:20;102330.97;;;-2.14;67.66
48926;BME280;39838;59.938;30.642;2024-03-06T06:38:47;102330.97;;;-2.14;67.57
48926;BME280;39838;59.938;30.642;2024-03-06T06:41:17;102333.41;;;-2.15;67.30
48926;BME280;39838;59.938;30.642;2024-03-06T06:43:45;102332.38;;;-2.17;67.62
48926;BME280;39838;59.938;30.642;2024-03-06T06:46:12;102335.06;;;-2.16;67.04
48926;BME280;39838;59.938;30.642;2024-03-06T06:48:39;102328.41;;;-2.14;67.41
48926;BME280;39838;59.938;30.642;2024-03-06T06:51:06;102336.19;;;-2.12;67.58
48926;BME280;39838;59.938;30.642;2024-03-06T06:53:34;102333.13;;;-2.08;67.55
48926;BME280;39838;59.938;30.642;2024-03-06T06:56:01;102326.09;;;-2.01;67.25
48926;BME280;39838;59.938;30.642;2024-03-06T06:58:29;102327.69;;;-1.91;67.26
48926;BME280;39838;59.938;30.642;2024-03-06T07:00:57;102324.38;;;-1.90;67.11
48926;BME280;39838;59.938;30.642;2024-03-06T07:03:24;102319.75;;;-1.84;66.92
48926;BME280;39838;59.938;30.642;2024-03-06T07:05:55;102322.44;;;-1.82;66.72
48926;BME280;39838;59.938;30.642;2024-03-06T07:08:23;102314.66;;;-1.84;66.94
48926;BME280;39838;59.938;30.642;2024-03-06T07:10:50;102314.75;;;-1.72;66.70
48926;BME280;39838;59.938;30.642;2024-03-06T07:13:19;102317.66;;;-1.68;66.20
48926;BME280;39838;59.938;30.642;2024-03-06T07:15:48;102313.03;;;-1.61;66.30
48926;BME280;39838;59.938;30.642;2024-03-06T07:18:15;102320.63;;;-1.51;66.13
48926;BME280;39838;59.938;30.642;2024-03-06T07:20:42;102321.09;;;-1.45;65.64
48926;BME280;39838;59.938;30.642;2024-03-06T07:23:09;102313.81;;;-1.41;65.44
48926;BME280;39838;59.938;30.642;2024-03-06T07:25:36;102307.72;;;-1.31;65.00
48926;BME280;39838;59.938;30.642;2024-03-06T07:28:04;102310.53;;;-1.28;64.53
48926;BME280;39838;59.938;30.642;2024-03-06T07:30:31;102302.09;;;-1.27;64.33
48926;BME280;39838;59.938;30.642;2024-03-06T07:33:00;102299.25;;;-1.20;64.00
48926;BME280;39838;59.938;30.642;2024-03-06T07:35:27;102285.03;;;-1.16;64.02
48926;BME280;39838;59.938;30.642;2024-03-06T07:37:55;102282.75;;;-1.13;63.28
48926;BME280;39838;59.938;30.642;2024-03-06T07:40:22;102275.78;;;-1.04;63.35
48926;BME280;39838;59.938;30.642;2024-03-06T07:42:49;102272.59;;;-1.01;63.36
48926;BME280;39838;59.938;30.642;2024-03-06T07:45:16;102275.13;;;-0.90;63.02
48926;BME280;39838;59.938;30.642;2024-03-06T07:47:44;102285.00;;;-0.83;62.62
48926;BME280;39838;59.938;30.642;2024-03-06T07:50:12;102270.72;;;-0.80;62.40
48926;BME280;39838;59.938;30.642;2024-03-06T07:52:44;102270.50;;;-0.72;61.91
48926;BME280;39838;59.938;30.642;2024-03-06T07:55:12;102272.72;;;-0.65;61.67
48926;BME280;39838;59.938;30.642;2024-03-06T07:57:39;102268.63;;;-0.63;60.41
48926;BME280;39838;59.938;30.642;2024-03-06T08:00:07;102274.28;;;-0.67;60.87
48926;BME280;39838;59.938;30.642;2024-03-06T08:02:40;102274.94;;;-0.69;60.53
48926;BME280;39838;59.938;30.642;2024-03-06T08:05:09;102265.97;;;-0.64;60.79
48926;BME280;39838;59.938;30.642;2024-03-06T08:07:39;102275.63;;;-0.60;60.41
48926;BME280;39838;59.938;30.642;2024-03-06T08:10:09;102271.72;;;-0.55;60.52
48926;BME280;39838;59.938;30.642;2024-03-06T08:12:39;102278.63;;;-0.54;60.16
48926;BME280;39838;59.938;30.642;2024-03-06T08:15:09;102274.97;;;-0.46;59.93
48926;BME280;39838;59.938;30.642;2024-03-06T08:17:38;102274.19;;;-0.45;59.56
48926;BME280;39838;59.938;30.642;2024-03-06T08:20:08;102278.50;;;-0.44;59.63
48926;BME280;39838;59.938;30.642;2024-03-06T08:22:37;102262.50;;;-0.41;58.77
48926;BME280;39838;59.938;30.642;2024-03-06T08:25:07;102270.41;;;-0.38;59.21
48926;BME280;39838;59.938;30.642;2024-03-06T08:27:37;102231.31;;;-0.49;59.11
48926;BME280;39838;59.938;30.642;2024-03-06T08:30:05;102253.75;;;-0.33;58.94
48926;BME280;39838;59.938;30.642;2024-03-06T08:32:35;102255.84;;;-0.28;59.66
48926;BME280;39838;59.938;30.642;2024-03-06T08:35:03;102256.28;;;-0.21;58.75
48926;BME280;39838;59.938;30.642;2024-03-06T08:37:31;102265.25;;;-0.15;58.82
48926;BME280;39838;59.938;30.642;2024-03-06T08:39:59;102259.59;;;-0.11;58.30
48926;BME280;39838;59.938;30.642;2024-03-06T08:42:28;102263.59;;;-0.14;57.92
48926;BME280;39838;59.938;30.642;2024-03-06T08:44:55;102258.38;;;-0.16;57.98
48926;BME280;39838;59.938;30.642;2024-03-06T08:47:22;102261.28;;;-0.11;58.33
48926;BME280;39838;59.938;30.642;2024-03-06T08:49:49;102265.69;;;-0.09;58.58
48926;BME280;39838;59.938;30.642;2024-03-06T08:52:17;102267.91;;;-0.02;58.38
48926;BME280;39838;59.938;30.642;2024-03-06T08:54:45;102258.22;;;0.06;58.32
48926;BME280;39838;59.938;30.642;2024-03-06T08:57:12;102264.97;;;0.17;58.65
48926;BME280;39838;59.938;30.642;2024-03-06T08:59:41;102254.63;;;0.28;57.44
48926;BME280;39838;59.938;30.642;2024-03-06T09:02:13;102259.84;;;0.29;57.55
48926;BME280;39838;59.938;30.642;2024-03-06T09:04:41;102268.50;;;0.31;57.53
48926;BME280;39838;59.938;30.642;2024-03-06T09:07:08;102247.47;;;0.35;57.67
48926;BME280;39838;59.938;30.642;2024-03-06T09:09:36;102244.09;;;0.48;57.09
48926;BME280;39838;59.938;30.642;2024-03-06T09:12:04;102237.59;;;0.53;56.96
48926;BME280;39838;59.938;30.642;2024-03-06T09:14:32;102248.16;;;0.58;56.22
48926;BME280;39838;59.938;30.642;2024-03-06T09:17:01;102239.13;;;0.63;56.76
48926;BME280;39838;59.938;30.642;2024-03-06T09:19:28;102228.72;;;0.73;56.80
48926;BME280;39838;59.938;30.642;2024-03-06T09:21:55;102223.72;;;0.88;57.20
48926;BME280;39838;59.938;30.642;2024-03-06T09:24:23;102217.25;;;0.93;56.42
48926;BME280;39838;59.938;30.642;2024-03-06T09:26:52;102220.91;;;0.96;56.73
48926;BME280;39838;59.938;30.642;2024-03-06T09:29:19;102228.00;;;1.00;56.06
48926;BME280;39838;59.938;30.642;2024-03-06T09:31:47;102218.84;;;1.04;56.78
48926;BME280;39838;59.938;30.642;2024-03-06T09:34:16;102210.19;;;1.15;56.35
48926;BME280;39838;59.938;30.642;2024-03-06T09:36:46;102215.84;;;1.23;56.61
48926;BME280;39838;59.938;30.642;2024-03-06T09:39:14;102206.16;;;1.32;56.45
48926;BME280;39838;59.938;30.642;2024-03-06T09:41:44;102206.88;;;1.43;56.29
48926;BME280;39838;59.938;30.642;2024-03-06T09:44:12;102207.75;;;1.43;55.67
48926;BME280;39838;59.938;30.642;2024-03-06T09:46:41;102204.41;;;1.44;55.90
48926;BME280;39838;59.938;30.642;2024-03-06T09:49:10;102193.44;;;1.47;55.69
48926;BME280;39838;59.938;30.642;2024-03-06T09:51:42;102211.59;;;1.50;55.70
48926;BME280;39838;59.938;30.642;2024-03-06T09:54:12;102182.31;;;1.46;55.61
48926;BME280;39838;59.938;30.642;2024-03-06T09:56:41;102186.38;;;1.56;55.25
48926;BME280;39838;59.938;30.642;2024-03-06T09:59:10;102187.03;;;1.53;55.08
48926;BME280;39838;59.938;30.642;2024-03-06T10:01:40;102178.56;;;1.54;55.62
48926;BME280;39838;59.938;30.642;2024-03-06T10:04:19;102178.28;;;1.50;55.74
48926;BME280;39838;59.938;30.642;2024-03-06T10:06:48;102163.09;;;1.53;55.51
48926;BME280;39838;59.938;30.642;2024-03-06T10:09:17;102168.69;;;1.60;55.77
48926;BME280;39838;59.938;30.642;2024-03-06T10:11:45;102173.03;;;1.61;55.07
48926;BME280;39838;59.938;30.642;2024-03-06T10:14:13;102171.47;;;1.63;55.74
48926;BME280;39838;59.938;30.642;2024-03-06T10:16:54;102146.75;;;1.51;55.30
48926;BME280;39838;59.938;30.642;2024-03-06T10:19:24;102163.25;;;1.69;54.95
48926;BME280;39838;59.938;30.642;2024-03-06T10:21:55;102157.63;;;1.75;55.24
48926;BME280;39838;59.938;30.642;2024-03-06T10:24:24;102161.19;;;1.77;54.89
48926;BME280;39838;59.938;30.642;2024-03-06T10:26:52;102165.31;;;1.75;54.73
48926;BME280;39838;59.938;30.642;2024-03-06T10:29:21;102167.19;;;1.77;54.49
48926;BME280;39838;59.938;30.642;2024-03-06T10:31:51;102165.16;;;1.72;54.54
48926;BME280;39838;59.938;30.642;2024-03-06T10:34:20;102148.47;;;1.78;54.28
48926;BME280;39838;59.938;30.642;2024-03-06T10:36:52;102158.09;;;1.82;54.46
48926;BME280;39838;59.938;30.642;2024-03-06T10:39:22;102146.06;;;1.81;54.38
48926;BME280;39838;59.938;30.642;2024-03-06T10:41:52;102154.28;;;1.76;54.13
48926;BME280;39838;59.938;30.642;2024-03-06T10:44:22;102148.56;;;1.80;54.59
48926;BME280;39838;59.938;30.642;2024-03-06T10:46:55;102110.28;;;1.55;54.96
48926;BME280;39838;59.938;30.642;2024-03-06T10:49:26;102144.22;;;1.79;54.39
48926;BME280;39838;59.938;30.642;2024-03-06T10:51:57;102141.66;;;1.79;54.74
48926;BME280;39838;59.938;30.642;2024-03-06T10:54:31;102144.22;;;1.79;54.90
48926;BME280;39838;59.938;30.642;2024-03-06T10:57:01;102138.22;;;1.78;54.69
48926;BME280;39838;59.938;30.642;2024-03-06T10:59:29;102136.72;;;1.82;54.45
48926;BME280;39838;59.938;30.642;2024-03-06T11:01:58;102125.19;;;1.75;54.97
48926;BME280;39838;59.938;30.642;2024-03-06T11:04:28;102135.31;;;1.87;55.00
48926;BME280;39838;59.938;30.642;2024-03-06T11:06:56;102130.41;;;1.90;55.02
48926;BME280;39838;59.938;30.642;2024-03-06T11:09:25;102139.84;;;1.91;55.00
48926;BME280;39838;59.938;30.642;2024-03-06T11:11:54;102131.00;;;1.86;54.37
48926;BME280;39838;59.938;30.642;2024-03-06T11:14:22;102125.94;;;1.87;54.63
48926;BME280;39838;59.938;30.642;2024-03-06T11:16:58;102120.38;;;1.80;54.59
48926;BME280;39838;59.938;30.642;2024-03-06T11:19:26;102109.94;;;1.77;55.29
48926;BME280;39838;59.938;30.642;2024-03-06T11:21:53;102111.38;;;1.86;54.78
48926;BME280;39838;59.938;30.642;2024-03-06T11:24:22;102108.09;;;1.89;54.79
48926;BME280;39838;59.938;30.642;2024-03-06T11:26:53;102106.16;;;1.85;54.57
48926;BME280;39838;59.938;30.642;2024-03-06T11:29:28;102105.38;;;1.86;54.71
48926;BME280;39838;59.938;30.642;2024-03-06T11:32:00;102105.53;;;1.89;54.49
48926;BME280;39838;59.938;30.642;2024-03-06T11:34:28;102103.97;;;1.91;54.48
48926;BME280;39838;59.938;30.642;2024-03-06T11:36:57;102089.91;;;1.84;54.11
48926;BME280;39838;59.938;30.642;2024-03-06T11:39:28;102098.63;;;1.88;54.25
48926;BME280;39838;59.938;30.642;2024-03-06T11:41:56;102088.59;;;1.91;54.19
48926;BME280;39838;59.938;30.642;2024-03-06T11:44:26;102092.28;;;1.96;54.04
48926;BME280;39838;59.938;30.642;2024-03-06T11:46:59;102090.34;;;1.92;53.89
48926;BME280;39838;59.938;30.642;2024-03-06T11:49:28;102080.97;;;1.92;53.97
48926;BME280;39838;59.938;30.642;2024-03-06T11:51:58;102081.88;;;1.93;53.85
48926;BME280;39838;59.938;30.642;2024-03-06T11:54:26;102071.63;;;1.93;53.78
48926;BME280;39838;59.938;30.642;2024-03-06T11:56:55;102048.00;;;1.84;53.92
48926;BME280;39838;59.938;30.642;2024-03-06T11:59:25;102077.66;;;2.08;53.94
48926;BME280;39838;59.938;30.642;2024-03-06T12:01:52;102076.06;;;2.10;53.94
48926;BME280;39838;59.938;30.642;2024-03-06T12:04:20;102073.75;;;2.15;54.01
48926;BME280;39838;59.938;30.642;2024-03-06T12:06:48;102074.84;;;2.18;53.91
48926;BME280;39838;59.938;30.642;2024-03-06T12:09:15;102074.22;;;2.23;53.85
48926;BME280;39838;59.938;30.642;2024-03-06T12:11:43;102070.97;;;2.25;54.04
48926;BME280;39838;59.938;30.642;2024-03-06T12:14:14;102068.47;;;2.27;53.81
48926;BME280;39838;59.938;30.642;2024-03-06T12:16:53;102045.84;;;2.19;54.07
48926;BME280;39838;59.938;30.642;2024-03-06T12:19:21;102076.69;;;2.36;54.25
48926;BME280;39838;59.938;30.642;2024-03-06T12:21:49;102072.28;;;2.33;54.16
48926;BME280;39838;59.938;30.642;2024-03-06T12:24:16;102068.63;;;2.30;54.32
48926;BME280;39838;59.938;30.642;2024-03-06T12:26:44;102046.56;;;2.17;54.53
48926;BME280;39838;59.938;30.642;2024-03-06T12:29:17;102065.56;;;2.21;54.44
48926;BME280;39838;59.938;30.642;2024-03-06T12:31:47;102062.03;;;2.18;54.66
48926;BME280;39838;59.938;30.642;2024-03-06T12:34:14;102066.34;;;2.19;54.75
48926;BME280;39838;59.938;30.642;2024-03-06T12:36:42;102066.88;;;2.14;54.45
48926;BME280;39838;59.938;30.642;2024-03-06T12:39:10;102063.72;;;2.18;54.37
48926;BME280;39838;59.938;30.642;2024-03-06T12:41:39;102057.69;;;2.17;54.46
48926;BME280;39838;59.938;30.642;2024-03-06T12:44:06;102064.38;;;2.15;54.54
48926;BME280;39838;59.938;30.642;2024-03-06T12:46:34;102060.16;;;2.16;54.24
48926;BME280;39838;59.938;30.642;2024-03-06T12:49:02;102064.50;;;2.17;54.29